Time;durP1;ratioP1;P1;durP2;ratioP2;P2;SDS_P1;SDS_P2;PMS_P1;PMS_P2;Temp;Humidity;BMP_temperature;BMP_pressure;BME280_temperature;BME280_humidity;BME280_pressure;Samples;Min_cycle;Max_cycle;Signal;HPM_P1;HPM_P2
2022/07/09 00:01:03;;;;;;;0.00;0.00;;;;;;;21.24;57.85;102816.72;7359295;19;20006;-63
2022/07/09 00:03:29;;;;;;;0.00;0.00;;;;;;;21.25;57.78;102818.47;7361583;19;20006;-63
2022/07/09 00:05:55;;;;;;;0.00;0.00;;;;;;;21.27;57.01;102821.06;7360992;19;20029;-63
2022/07/09 00:08:20;;;;;;;0.00;0.00;;;;;;;21.28;57.35;102817.47;7359721;19;20021;-63
2022/07/09 00:10:46;;;;;;;0.00;0.00;;;;;;;21.20;57.84;102804.47;7359078;19;20024;-63
2022/07/09 00:13:11;;;;;;;0.00;0.00;;;;;;;21.25;57.51;102807.84;7360638;19;20013;-63
2022/07/09 00:15:37;;;;;;;0.00;0.00;;;;;;;21.27;57.25;102808.63;7359999;19;20007;-63
2022/07/09 00:18:02;;;;;;;0.00;0.00;;;;;;;21.26;57.77;102804.25;7360861;19;20019;-63
2022/07/09 00:20:28;;;;;;;0.00;0.00;;;;;;;21.21;57.57;102812.38;7358542;19;20052;-63
2022/07/09 00:22:53;;;;;;;0.00;0.00;;;;;;;20.98;57.41;102773.31;7359034;19;20018;-63
2022/07/09 00:25:19;;;;;;;0.00;0.00;;;;;;;21.16;57.63;102813.47;7362099;19;20049;-63
2022/07/09 00:27:44;;;;;;;0.10;0.10;;;;;;;21.11;57.34;102805.63;7362029;19;20050;-63
2022/07/09 00:30:10;;;;;;;0.00;0.00;;;;;;;21.03;57.77;102806.81;7367659;19;20018;-63
2022/07/09 00:32:36;;;;;;;0.00;0.00;;;;;;;21.04;57.67;102813.88;7369426;19;20030;-63
2022/07/09 00:35:01;;;;;;;0.00;0.00;;;;;;;21.02;57.96;102815.69;7366647;19;20586;-63
2022/07/09 00:37:26;;;;;;;0.00;0.00;;;;;;;20.96;57.74;102820.28;7367544;19;20806;-63
2022/07/09 00:39:52;;;;;;;0.00;0.00;;;;;;;20.94;57.83;102814.16;7366277;19;20007;-63
2022/07/09 00:42:17;;;;;;;0.00;0.00;;;;;;;20.91;57.64;102824.00;7366909;19;20014;-63
2022/07/09 00:44:43;;;;;;;0.00;0.00;;;;;;;20.86;58.17;102818.84;7372319;19;20040;-63
2022/07/09 00:47:08;;;;;;;0.08;0.08;;;;;;;20.83;57.52;102821.59;7376017;19;20035;-65
2022/07/09 00:49:39;;;;;;;0.00;0.00;;;;;;;20.82;57.92;102821.66;7369623;19;20002;-63
2022/07/09 00:52:05;;;;;;;0.00;0.00;;;;;;;20.76;57.87;102817.41;7368148;19;20462;-64
2022/07/09 00:54:31;;;;;;;0.10;0.10;;;;;;;20.72;58.19;102816.63;7363936;19;20022;-63
2022/07/09 00:56:57;;;;;;;0.10;0.10;;;;;;;20.72;58.05;102823.72;7367758;19;20063;-63
2022/07/09 00:59:23;;;;;;;0.10;0.10;;;;;;;20.34;57.96;102754.09;7372675;19;20105;-63
2022/07/09 01:01:50;;;;;;;0.00;0.00;;;;;;;20.67;58.30;102815.03;7372606;19;20015;-63
2022/07/09 01:04:15;;;;;;;0.00;0.00;;;;;;;20.63;58.04;102824.91;7364181;19;21373;-63
2022/07/09 01:06:41;;;;;;;0.00;0.00;;;;;;;20.60;58.28;102830.28;7366854;19;20092;-63
2022/07/09 01:09:07;;;;;;;0.03;0.03;;;;;;;20.46;58.63;102812.13;7366686;19;20014;-63
2022/07/09 01:11:32;;;;;;;0.00;0.00;;;;;;;20.47;58.30;102818.31;7368025;19;20078;-63
2022/07/09 01:13:58;;;;;;;0.00;0.00;;;;;;;20.52;58.70;102818.16;7368965;19;20010;-63
2022/07/09 01:16:34;;;;;;;0.00;0.00;;;;;;;20.54;57.93;102824.31;7369073;19;20007;-63
2022/07/09 01:19:00;;;;;;;0.00;0.00;;;;;;;20.52;58.39;102818.16;7367410;19;20630;-63
2022/07/09 01:21:25;;;;;;;0.00;0.00;;;;;;;20.39;58.95;102799.06;7369461;19;21774;-63
2022/07/09 01:23:51;;;;;;;0.00;0.00;;;;;;;20.55;59.09;102831.34;7365578;19;20014;-63
2022/07/09 01:26:19;;;;;;;0.00;0.00;;;;;;;20.56;58.88;102822.47;7369371;19;20007;-63
2022/07/09 01:28:45;;;;;;;0.00;0.00;;;;;;;20.56;58.86;102814.50;7367329;19;20010;-64
2022/07/09 01:31:10;;;;;;;0.00;0.00;;;;;;;20.57;58.67;102818.91;7368061;19;20115;-63
2022/07/09 01:33:36;;;;;;;0.00;0.00;;;;;;;20.59;58.57;102822.38;7364136;19;20014;-63
2022/07/09 01:36:01;;;;;;;0.00;0.00;;;;;;;20.60;58.69;102819.69;7369172;19;20010;-63
2022/07/09 01:38:26;;;;;;;0.00;0.00;;;;;;;20.62;58.77;102828.44;7365374;19;20050;-63
2022/07/09 01:40:52;;;;;;;0.00;0.00;;;;;;;20.61;58.61;102815.22;7367966;19;20414;-64
2022/07/09 01:43:18;;;;;;;0.03;0.03;;;;;;;20.64;59.07;102820.47;7365909;19;20014;-63
2022/07/09 01:45:43;;;;;;;0.00;0.00;;;;;;;20.65;59.00;102816.88;7369844;19;20106;-63
2022/07/09 01:48:09;;;;;;;0.00;0.00;;;;;;;20.65;58.76;102816.88;7369272;19;20028;-63
2022/07/09 01:50:34;;;;;;;0.00;0.00;;;;;;;20.65;58.43;102811.56;7368944;19;20022;-63
2022/07/09 01:53:00;;;;;;;0.00;0.00;;;;;;;20.65;59.06;102811.56;7367737;19;20442;-63
2022/07/09 01:55:25;;;;;;;0.00;0.00;;;;;;;20.66;59.19;102815.97;7368199;19;20015;-63
2022/07/09 01:57:51;;;;;;;0.00;0.00;;;;;;;20.65;58.75;102816.88;7358333;19;20024;-63
2022/07/09 02:00:18;;;;;;;0.00;0.00;;;;;;;20.63;58.72;102819.59;7365287;19;20021;-63
2022/07/09 02:02:43;;;;;;;0.00;0.00;;;;;;;20.61;59.20;102809.94;7364952;19;20477;-63
2022/07/09 02:05:09;;;;;;;0.05;0.05;;;;;;;20.65;58.96;102816.88;7367155;19;20010;-63
2022/07/09 02:07:35;;;;;;;0.00;0.00;;;;;;;20.68;59.12;102816.75;7361518;19;20026;-63
2022/07/09 02:10:01;;;;;;;0.10;0.10;;;;;;;20.58;59.28;102802.03;7366809;19;20018;-63
2022/07/09 02:12:26;;;;;;;0.10;0.10;;;;;;;20.69;58.53;102818.53;7364254;19;20045;-63
2022/07/09 02:14:51;;;;;;;0.00;0.00;;;;;;;20.69;58.91;102814.09;7366425;19;21816;-63
2022/07/09 02:17:17;;;;;;;0.05;0.05;;;;;;;20.71;59.02;102811.38;7366336;19;20015;-63
2022/07/09 02:19:42;;;;;;;0.10;0.10;;;;;;;20.71;59.17;102806.94;7360458;19;20019;-63
2022/07/09 02:22:08;;;;;;;0.00;0.00;;;;;;;20.67;59.03;102799.97;7361592;19;20513;-63
2022/07/09 02:24:33;;;;;;;0.10;0.10;;;;;;;20.71;59.04;102798.97;7366043;19;20036;-63
2022/07/09 02:26:59;;;;;;;0.10;0.10;;;;;;;20.70;59.04;102799.03;7364200;19;20014;-63
2022/07/09 02:29:24;;;;;;;0.00;0.00;;;;;;;20.63;58.80;102792.16;7365619;19;20014;-63
2022/07/09 02:31:50;;;;;;;0.00;0.00;;;;;;;20.59;59.10;102783.44;7362226;19;20043;-63
2022/07/09 02:34:16;;;;;;;0.00;0.00;;;;;;;20.68;58.83;102793.78;7364557;19;20526;-63
2022/07/09 02:36:41;;;;;;;0.00;0.00;;;;;;;20.58;59.11;102779.06;7366092;19;20010;-62
2022/07/09 02:39:06;;;;;;;0.00;0.00;;;;;;;20.67;59.27;102794.66;7363361;19;20522;-63
2022/07/09 02:41:32;;;;;;;0.00;0.00;;;;;;;20.66;59.26;102789.41;7364338;19;20006;-64
2022/07/09 02:43:57;;;;;;;0.10;0.10;;;;;;;20.55;58.93;102778.28;7363785;19;20046;-64
2022/07/09 02:46:23;;;;;;;0.10;0.10;;;;;;;20.61;59.00;102783.38;7365760;19;20149;-63
2022/07/09 02:48:48;;;;;;;0.00;0.00;;;;;;;20.61;58.90;102775.41;7363486;19;20742;-63
2022/07/09 02:51:14;;;;;;;0.00;0.00;;;;;;;20.65;59.08;102793.84;7364068;19;20732;-63
2022/07/09 02:53:39;;;;;;;0.00;0.00;;;;;;;20.66;59.22;102792.06;7365201;19;20006;-63
2022/07/09 02:56:05;;;;;;;0.00;0.00;;;;;;;20.60;59.00;102784.31;7363852;19;20019;-63
2022/07/09 02:58:33;;;;;;;0.00;0.00;;;;;;;20.68;58.50;102796.41;7361749;19;20018;-63
2022/07/09 03:00:59;;;;;;;0.00;0.00;;;;;;;20.64;59.10;102784.16;7365227;19;20021;-63
2022/07/09 03:03:24;;;;;;;0.00;0.00;;;;;;;20.58;59.12;102778.16;7361734;19;20022;-63
2022/07/09 03:05:50;;;;;;;0.05;0.05;;;;;;;20.67;58.73;102783.19;7355074;19;20383;-63
2022/07/09 03:08:16;;;;;;;0.08;0.08;;;;;;;20.59;59.32;102769.28;7364498;19;20916;-63
2022/07/09 03:10:41;;;;;;;0.00;0.00;;;;;;;20.67;59.13;102773.41;7362814;19;20022;-63
2022/07/09 03:13:06;;;;;;;0.00;0.00;;;;;;;20.66;59.13;102770.81;7364922;19;20007;-63
2022/07/09 03:15:32;;;;;;;0.00;0.00;;;;;;;20.63;59.30;102770.91;7364798;19;20014;-63
2022/07/09 03:17:57;;;;;;;0.10;0.10;;;;;;;20.62;58.99;102769.19;7364996;19;20689;-63
2022/07/09 03:20:23;;;;;;;0.10;0.10;;;;;;;20.61;59.48;102778.94;7355100;19;20026;-63
2022/07/09 03:22:48;;;;;;;0.00;0.00;;;;;;;20.57;59.44;102771.13;7365537;19;20089;-63
2022/07/09 03:25:14;;;;;;;0.00;0.00;;;;;;;20.54;59.23;102771.22;7362835;19;20117;-63
2022/07/09 03:27:39;;;;;;;0.08;0.08;;;;;;;20.50;59.60;102772.22;7366134;19;20015;-63
2022/07/09 03:30:05;;;;;;;0.00;0.00;;;;;;;20.46;59.81;102764.34;7365858;19;22273;-63
2022/07/09 03:32:30;;;;;;;0.00;0.00;;;;;;;20.40;59.42;102764.53;7363696;19;20011;-63
2022/07/09 03:34:56;;;;;;;0.00;0.00;;;;;;;20.41;60.00;102766.25;7363669;19;20349;-63
2022/07/09 03:37:22;;;;;;;0.03;0.03;;;;;;;20.41;59.88;102765.38;7364622;19;20010;-63
2022/07/09 03:39:47;;;;;;;0.00;0.00;;;;;;;20.38;59.71;102763.72;7365731;19;20014;-63
2022/07/09 03:42:13;;;;;;;0.00;0.00;;;;;;;20.30;59.92;102757.75;7363380;19;20006;-63
2022/07/09 03:44:39;;;;;;;0.00;0.00;;;;;;;20.39;59.83;102775.19;7365537;19;20017;-63
2022/07/09 03:47:06;;;;;;;0.03;0.03;;;;;;;20.38;60.04;102779.63;7362711;19;20011;-63
2022/07/09 03:49:32;;;;;;;0.00;0.00;;;;;;;20.37;59.94;102775.22;7365502;19;20022;-63
2022/07/09 03:51:58;;;;;;;0.00;0.00;;;;;;;20.38;59.99;102782.28;7363053;19;20025;-63
2022/07/09 03:54:23;;;;;;;0.00;0.00;;;;;;;20.38;60.53;102776.13;7363092;19;20015;-63
2022/07/09 03:56:49;;;;;;;0.10;0.10;;;;;;;20.37;60.34;102785.84;7361681;19;20014;-63
2022/07/09 03:59:15;;;;;;;0.00;0.00;;;;;;;20.36;60.35;102781.44;7364852;19;20084;-63
2022/07/09 04:01:40;;;;;;;0.00;0.00;;;;;;;20.35;60.07;102785.03;7360712;19;20014;-63
2022/07/09 04:04:05;;;;;;;0.00;0.00;;;;;;;20.36;59.93;102785.88;7363347;19;20046;-63
2022/07/09 04:06:31;;;;;;;0.08;0.08;;;;;;;20.36;60.23;102785.88;7363617;19;20011;-63
2022/07/09 04:08:56;;;;;;;0.00;0.00;;;;;;;20.30;60.28;102784.28;7363726;19;20122;-63
2022/07/09 04:11:22;;;;;;;0.00;0.00;;;;;;;20.33;60.27;102784.22;7361447;19;20014;-63
2022/07/09 04:13:47;;;;;;;0.08;0.08;;;;;;;20.33;60.33;102784.22;7365116;19;20011;-63
2022/07/09 04:16:13;;;;;;;0.10;0.10;;;;;;;20.33;59.96;102784.22;7359321;19;20041;-63
2022/07/09 04:18:42;;;;;;;0.10;0.10;;;;;;;20.32;60.13;102787.75;7362146;19;20030;-63
2022/07/09 04:21:08;;;;;;;0.00;0.00;;;;;;;20.31;60.62;102783.38;7363552;19;20693;-63
2022/07/09 04:23:33;;;;;;;0.00;0.00;;;;;;;20.32;60.34;102793.06;7365078;19;20018;-63
2022/07/09 04:25:59;;;;;;;0.00;0.00;;;;;;;20.32;60.05;102787.75;7361950;19;20014;-63
2022/07/09 04:28:24;;;;;;;0.03;0.03;;;;;;;20.32;60.44;102782.44;7361579;19;20009;-63
2022/07/09 04:30:50;;;;;;;0.00;0.00;;;;;;;20.32;60.29;102782.44;7363166;19;20014;-63
2022/07/09 04:33:15;;;;;;;0.00;0.00;;;;;;;20.32;60.09;102777.16;7363028;19;20014;-63
2022/07/09 04:35:40;;;;;;;0.08;0.08;;;;;;;20.31;60.07;102780.72;7364244;19;20006;-63
2022/07/09 04:38:06;;;;;;;0.10;0.10;;;;;;;20.30;60.41;102781.63;7363076;19;20021;-63
2022/07/09 04:40:31;;;;;;;0.00;0.00;;;;;;;20.30;60.12;102779.00;7363743;19;20074;-62
2022/07/09 04:42:57;;;;;;;0.10;0.10;;;;;;;20.32;60.45;102771.84;7360663;19;20010;-63
2022/07/09 04:45:23;;;;;;;0.05;0.05;;;;;;;20.32;60.02;102777.16;7363972;19;20010;-63
2022/07/09 04:47:48;;;;;;;0.10;0.10;;;;;;;20.32;60.31;102782.44;7360921;19;20029;-63
2022/07/09 04:50:14;;;;;;;0.10;0.10;;;;;;;20.30;60.60;102786.94;7362561;19;20022;-63
2022/07/09 04:52:40;;;;;;;0.00;0.00;;;;;;;20.28;60.28;102778.19;7362891;19;20019;-63
2022/07/09 04:55:06;;;;;;;0.00;0.00;;;;;;;20.30;60.28;102779.00;7362585;19;20101;-63
2022/07/09 04:57:32;;;;;;;0.03;0.03;;;;;;;20.31;60.22;102786.03;7360333;19;20010;-63
2022/07/09 05:00:01;;;;;;;0.08;0.08;;;;;;;20.34;60.22;102785.94;7360994;19;20050;-63
2022/07/09 05:02:26;;;;;;;0.00;0.00;;;;;;;20.32;60.69;102787.75;7361013;19;21567;-63
2022/07/09 05:04:52;;;;;;;0.00;0.00;;;;;;;20.33;60.55;102786.88;7363579;19;21219;-63
2022/07/09 05:07:17;;;;;;;0.00;0.00;;;;;;;20.31;60.77;102782.50;7361435;19;20090;-63
2022/07/09 05:09:43;;;;;;;0.00;0.00;;;;;;;20.31;60.41;102788.69;7363607;19;20014;-63
2022/07/09 05:12:10;;;;;;;0.10;0.10;;;;;;;20.31;60.31;102788.69;7360622;19;20018;-63
2022/07/09 05:14:36;;;;;;;0.05;0.05;;;;;;;20.29;60.29;102790.53;7367935;19;20801;-63
2022/07/09 05:17:02;;;;;;;0.10;0.10;;;;;;;20.30;60.39;102794.91;7368882;19;20006;-63
2022/07/09 05:19:27;;;;;;;0.00;0.00;;;;;;;20.30;60.35;102792.25;7368228;19;20015;-63
2022/07/09 05:21:53;;;;;;;0.05;0.05;;;;;;;20.31;60.50;102796.63;7362725;19;20013;-63
2022/07/09 05:24:18;;;;;;;0.00;0.00;;;;;;;20.21;60.60;102781.91;7368476;19;20019;-63
2022/07/09 05:26:44;;;;;;;0.00;0.00;;;;;;;20.30;60.12;102800.22;7365551;19;20097;-62
2022/07/09 05:29:09;;;;;;;0.00;0.00;;;;;;;20.31;60.11;102804.59;7367974;19;20035;-63
2022/07/09 05:31:34;;;;;;;0.03;0.03;;;;;;;20.32;60.12;102802.81;7366053;19;20509;-63
2022/07/09 05:34:00;;;;;;;0.00;0.00;;;;;;;20.34;60.53;102801.88;7367831;19;20729;-63
2022/07/09 05:36:28;;;;;;;0.00;0.00;;;;;;;20.35;60.44;102798.28;7363206;19;20402;-63
2022/07/09 05:38:54;;;;;;;0.00;0.00;;;;;;;20.22;60.76;102775.69;7366097;19;20748;-63
2022/07/09 05:41:19;;;;;;;0.00;0.00;;;;;;;20.37;60.49;102796.44;7369109;19;20022;-63
2022/07/09 05:43:44;;;;;;;0.00;0.00;;;;;;;20.37;60.61;102798.22;7369162;19;20311;-63
2022/07/09 05:46:10;;;;;;;0.10;0.10;;;;;;;20.40;60.30;102801.66;7366028;19;20017;-63
2022/07/09 05:48:35;;;;;;;0.00;0.00;;;;;;;20.43;60.33;102795.41;7364309;19;20013;-63
2022/07/09 05:51:00;;;;;;;0.00;0.00;;;;;;;20.46;60.87;102796.22;7364388;19;20015;-62
2022/07/09 05:53:26;;;;;;;0.10;0.10;;;;;;;20.51;60.86;102797.84;7368158;19;20010;-63
2022/07/09 05:55:51;;;;;;;0.00;0.00;;;;;;;20.52;60.77;102800.44;7366044;19;20119;-63
2022/07/09 05:58:17;;;;;;;0.10;0.10;;;;;;;20.53;60.59;102796.91;7362464;19;20018;-62
2022/07/09 06:00:42;;;;;;;0.00;0.00;;;;;;;20.54;60.51;102795.97;7366692;19;20018;-63
2022/07/09 06:03:07;;;;;;;0.00;0.00;;;;;;;20.46;60.65;102782.94;7365342;19;20010;-63
2022/07/09 06:05:33;;;;;;;0.10;0.10;;;;;;;20.57;60.84;102797.66;7365001;19;20022;-63
2022/07/09 06:07:58;;;;;;;0.00;0.00;;;;;;;20.59;60.46;102802.03;7365521;19;20348;-63
2022/07/09 06:10:24;;;;;;;0.05;0.05;;;;;;;20.63;60.22;102808.06;7366640;19;20014;-63
2022/07/09 06:12:50;;;;;;;0.00;0.00;;;;;;;20.66;60.01;102808.00;7365832;19;20025;-63
2022/07/09 06:15:15;;;;;;;0.00;0.00;;;;;;;20.71;60.01;102803.41;7364244;19;20558;-62
2022/07/09 06:17:40;;;;;;;0.00;0.00;;;;;;;20.77;59.84;102810.31;7366538;19;20086;-63
2022/07/09 06:20:06;;;;;;;0.00;0.00;;;;;;;20.79;60.03;102806.69;7364214;19;20042;-63
2022/07/09 06:22:32;;;;;;;0.00;0.00;;;;;;;20.84;59.85;102796.78;7368911;19;20010;-63
2022/07/09 06:24:57;;;;;;;0.08;0.08;;;;;;;20.90;59.51;102804.56;7364690;19;20683;-63
2022/07/09 06:27:23;;;;;;;0.00;0.00;;;;;;;20.93;59.50;102801.81;7368053;19;20024;-63
2022/07/09 06:29:48;;;;;;;0.00;0.00;;;;;;;20.97;58.82;102807.88;7365982;19;20034;-63
2022/07/09 06:32:13;;;;;;;0.00;0.00;;;;;;;20.96;59.10;102807.00;7365273;19;20015;-63
2022/07/09 06:34:39;;;;;;;0.05;0.05;;;;;;;21.01;59.35;102808.66;7366103;19;20045;-63
2022/07/09 06:37:04;;;;;;;0.00;0.00;;;;;;;21.04;58.35;102824.50;7363157;19;20116;-63
2022/07/09 06:39:45;;;;;;;0.10;0.10;;;;;;;21.05;58.75;102807.63;7366414;19;21113;-63
2022/07/09 06:42:14;;;;;;;0.10;0.10;;;;;;;21.06;58.71;102812.03;7364766;19;20015;-63
2022/07/09 06:44:40;;;;;;;0.10;0.10;;;;;;;21.09;58.80;102819.91;7365579;19;20017;-63
2022/07/09 06:47:06;;;;;;;0.00;0.00;;;;;;;21.09;58.25;102817.25;7366322;19;20006;-63
2022/07/09 06:49:32;;;;;;;0.00;0.00;;;;;;;21.10;58.47;102824.28;7365277;19;20115;-63
2022/07/09 06:51:58;;;;;;;0.00;0.00;;;;;;;21.11;58.11;102821.56;7365705;19;20026;-63
2022/07/09 06:54:23;;;;;;;0.00;0.00;;;;;;;21.13;58.13;102818.84;7367710;19;20022;-62
2022/07/09 06:56:49;;;;;;;0.03;0.03;;;;;;;21.14;57.95;102826.81;7361750;19;20501;-63
2022/07/09 06:59:15;;;;;;;0.00;0.00;;;;;;;21.16;58.25;102824.09;7364943;19;20017;-63
2022/07/09 07:01:40;;;;;;;0.10;0.10;;;;;;;21.17;58.07;102825.81;7365153;19;20002;-63
2022/07/09 07:04:06;;;;;;;0.00;0.00;;;;;;;21.16;58.56;102829.41;7365592;19;20006;-63
2022/07/09 07:06:32;;;;;;;0.00;0.00;;;;;;;21.17;58.50;102825.81;7362543;19;20010;-63
2022/07/09 07:08:57;;;;;;;0.00;0.00;;;;;;;21.17;58.17;102823.16;7364202;19;21029;-63
2022/07/09 07:11:23;;;;;;;0.10;0.10;;;;;;;21.18;58.63;102822.22;7364137;19;20022;-63
2022/07/09 07:13:48;;;;;;;0.00;0.00;;;;;;;21.21;58.42;102823.00;7366172;19;20803;-63
2022/07/09 07:16:14;;;;;;;0.00;0.00;;;;;;;21.27;57.86;102826.38;7365453;19;20022;-63
2022/07/09 07:18:39;;;;;;;0.00;0.00;;;;;;;21.27;57.85;102819.28;7364411;19;20037;-63
2022/07/09 07:21:05;;;;;;;0.03;0.03;;;;;;;21.35;58.10;102825.25;7362766;19;20506;-63
2022/07/09 07:23:33;;;;;;;0.10;0.10;;;;;;;21.39;58.37;102826.88;7365297;19;20023;-63
2022/07/09 07:25:59;;;;;;;0.05;0.05;;;;;;;21.46;57.39;102833.72;7364042;19;20086;-63
2022/07/09 07:28:25;;;;;;;0.00;0.00;;;;;;;21.52;57.71;102831.75;7362864;19;20069;-62
2022/07/09 07:30:50;;;;;;;0.05;0.05;;;;;;;21.55;57.25;102835.19;7365280;19;20014;-62
2022/07/09 07:33:16;;;;;;;0.00;0.00;;;;;;;21.52;57.51;102815.81;7363925;19;20038;-63
2022/07/09 07:35:41;;;;;;;0.00;0.00;;;;;;;21.64;57.49;102839.28;7364834;19;20501;-63
2022/07/09 07:38:07;;;;;;;0.00;0.00;;;;;;;21.59;56.89;102812.00;7359448;19;20018;-63
2022/07/09 07:40:32;;;;;;;0.00;0.00;;;;;;;21.70;57.31;102820.50;7360840;19;20010;-63
2022/07/09 07:42:58;;;;;;;0.00;0.00;;;;;;;21.74;56.84;102822.94;7361850;19;20014;-63
2022/07/09 07:45:23;;;;;;;0.00;0.00;;;;;;;21.79;57.14;102825.44;7363543;19;20014;-63
2022/07/09 07:47:49;;;;;;;0.00;0.00;;;;;;;21.84;57.08;102827.94;7363871;19;20476;-63
2022/07/09 07:50:14;;;;;;;0.00;0.00;;;;;;;21.87;57.30;102827.84;7362373;19;20715;-63
2022/07/09 07:52:40;;;;;;;0.00;0.00;;;;;;;21.87;57.09;102818.06;7363220;19;20021;-63
2022/07/09 07:55:05;;;;;;;0.00;0.00;;;;;;;22.01;57.00;102829.09;7362864;19;20021;-62
2022/07/09 07:57:31;;;;;;;0.10;0.10;;;;;;;22.07;56.98;102824.47;7359579;19;20476;-63
2022/07/09 07:59:56;;;;;;;0.00;0.00;;;;;;;22.03;56.85;102808.59;7362525;19;20010;-63
2022/07/09 08:02:22;;;;;;;0.00;0.00;;;;;;;22.20;56.18;102833.72;7363213;19;20031;-62
2022/07/09 08:04:47;;;;;;;0.00;0.00;;;;;;;22.26;56.26;102826.41;7357642;19;20006;-62
2022/07/09 08:07:12;;;;;;;0.00;0.00;;;;;;;22.33;56.12;102832.34;7359418;19;20610;-62
2022/07/09 08:09:38;;;;;;;0.00;0.00;;;;;;;22.40;55.67;102827.66;7355421;19;20015;-62
2022/07/09 08:12:03;;;;;;;0.00;0.00;;;;;;;22.47;55.61;102835.34;7358580;19;20054;-62
2022/07/09 08:14:29;;;;;;;0.00;0.00;;;;;;;22.54;56.08;102830.66;7359249;19;20026;-63
2022/07/09 08:16:54;;;;;;;0.00;0.00;;;;;;;22.51;54.93;102810.34;7357443;19;20011;-63
2022/07/09 08:19:20;;;;;;;0.00;0.00;;;;;;;22.68;55.14;102822.13;7358576;19;20031;-63
2022/07/09 08:21:45;;;;;;;0.10;0.10;;;;;;;22.63;54.93;102814.31;7358356;19;20006;-63
2022/07/09 08:24:10;;;;;;;0.00;0.00;;;;;;;22.79;54.57;102825.22;7358560;19;20043;-62
2022/07/09 08:26:36;;;;;;;0.00;0.00;;;;;;;22.52;55.08;102773.94;7357856;19;20014;-63
2022/07/09 08:29:01;;;;;;;0.10;0.10;;;;;;;22.93;54.95;102825.56;7357020;19;20006;-62
2022/07/09 08:31:27;;;;;;;0.10;0.10;;;;;;;22.99;54.84;102822.63;7358941;19;20807;-63
2022/07/09 08:33:52;;;;;;;0.00;0.00;;;;;;;23.05;54.90;102817.03;7360807;19;20011;-62
2022/07/09 08:36:18;;;;;;;0.10;0.10;;;;;;;23.14;54.71;102821.13;7357351;19;20026;-63
2022/07/09 08:38:44;;;;;;;0.05;0.05;;;;;;;23.23;54.22;102820.75;7360775;19;20014;-62
2022/07/09 08:41:09;;;;;;;0.08;0.08;;;;;;;23.32;53.88;102822.19;7357388;19;20455;-63
2022/07/09 08:43:37;;;;;;;0.00;0.00;;;;;;;23.38;53.57;102813.91;7358854;19;20018;-62
2022/07/09 08:46:03;;;;;;;0.00;0.00;;;;;;;23.44;53.30;102820.78;7358219;19;20011;-62
2022/07/09 08:48:33;;;;;;;0.10;0.10;;;;;;;23.56;53.58;102812.22;7363967;19;20082;-63
2022/07/09 08:50:59;;;;;;;0.10;0.10;;;;;;;23.59;53.16;102832.56;7363151;19;20007;-62
2022/07/09 08:53:27;;;;;;;0.10;0.10;;;;;;;23.64;53.27;102814.59;7364119;19;20037;-63
2022/07/09 08:55:53;;;;;;;0.00;0.00;;;;;;;23.66;53.21;102812.72;7363050;19;21048;-63
2022/07/09 08:58:19;;;;;;;0.00;0.00;;;;;;;23.83;52.63;102826.19;7365701;19;20890;-63
2022/07/09 09:00:47;;;;;;;0.08;0.08;;;;;;;23.91;53.16;102823.16;7362803;19;20015;-62
2022/07/09 09:03:13;;;;;;;0.10;0.10;;;;;;;23.99;52.42;102827.22;7364082;19;20803;-62
2022/07/09 09:05:38;;;;;;;0.10;0.10;;;;;;;24.08;52.50;102826.81;7368620;19;20089;-62
2022/07/09 09:08:22;;;;;;;0.10;0.10;;;;;;;24.26;52.79;102830.41;7364252;19;20014;-62
2022/07/09 09:10:48;;;;;;;0.10;0.10;;;;;;;24.26;52.42;102825.06;7366011;19;20690;-62
2022/07/09 09:13:16;;;;;;;0.10;0.10;;;;;;;24.37;51.75;102827.28;7369515;19;20014;-62
2022/07/09 09:15:41;;;;;;;0.05;0.05;;;;;;;24.44;51.94;102826.06;7365529;19;20471;-63
2022/07/09 09:18:07;;;;;;;0.10;0.10;;;;;;;24.53;51.48;102822.97;7369371;19;20022;-62
2022/07/09 09:20:32;;;;;;;0.10;0.10;;;;;;;24.55;51.17;102810.38;7367048;19;20015;-63
2022/07/09 09:23:02;;;;;;;0.03;0.03;;;;;;;24.74;51.64;102825.53;7366498;19;20003;-63
2022/07/09 09:25:28;;;;;;;0.10;0.10;;;;;;;24.84;51.13;102826.81;7366779;19;20039;-63
2022/07/09 09:27:58;;;;;;;0.10;0.10;;;;;;;25.02;51.09;102815.19;7367162;19;21915;-62
2022/07/09 09:30:26;;;;;;;0.05;0.05;;;;;;;25.10;50.26;102815.72;7367534;19;20018;-63
2022/07/09 09:32:59;;;;;;;0.00;0.00;;;;;;;25.32;51.21;102817.28;7367086;19;20022;-63
2022/07/09 09:35:30;;;;;;;0.00;0.00;;;;;;;25.45;50.61;102813.06;7364884;19;20549;-62
2022/07/09 09:37:56;;;;;;;0.00;0.00;;;;;;;25.49;49.50;102809.25;7365012;19;20022;-63
2022/07/09 09:40:23;;;;;;;0.00;0.00;;;;;;;25.75;49.66;102815.06;7369277;19;20110;-63
2022/07/09 09:42:49;;;;;;;0.00;0.00;;;;;;;25.98;49.38;102827.22;7363792;19;20014;-63
2022/07/09 09:45:16;;;;;;;0.00;0.00;;;;;;;26.17;48.87;102821.75;7368291;19;20010;-62
2022/07/09 09:47:51;;;;;;;;;;;;;;;26.50;50.46;102825.22;7365944;19;20030;-63
2022/07/09 09:50:21;;;;;;;0.00;0.00;;;;;;;26.59;48.70;102813.13;7344993;19;19930;-63
2022/07/09 09:52:48;;;;;;;0.10;0.10;;;;;;;26.61;47.53;102806.75;7362099;19;20018;-62
2022/07/09 09:55:15;;;;;;;0.10;0.10;;;;;;;26.67;47.24;102804.69;7362739;19;20022;-62
2022/07/09 09:57:40;;;;;;;0.00;0.00;;;;;;;26.83;47.06;102810.88;7362362;19;20018;-62
2022/07/09 10:00:06;;;;;;;0.10;0.10;;;;;;;26.88;47.71;102820.38;7350938;19;20011;-62
2022/07/09 10:02:33;;;;;;;0.10;0.10;;;;;;;26.90;46.93;102804.19;7363070;19;20010;-62
2022/07/09 10:04:59;;;;;;;0.10;0.10;;;;;;;27.06;45.88;102810.38;7362947;19;20011;-62
2022/07/09 10:07:25;;;;;;;0.10;0.10;;;;;;;27.09;46.54;102809.38;7363858;19;20010;-62
2022/07/09 10:09:55;;;;;;;0.00;0.00;;;;;;;27.24;46.25;102821.00;7363478;19;20006;-62
2022/07/09 10:12:27;;;;;;;0.10;0.10;;;;;;;27.29;46.64;102818.91;7364581;19;20021;-62
2022/07/09 10:14:52;;;;;;;0.10;0.10;;;;;;;27.25;45.98;102814.69;7353289;19;20014;-62
2022/07/09 10:17:21;;;;;;;0.05;0.05;;;;;;;27.24;46.36;102815.66;7366881;19;20026;-63
2022/07/09 10:19:57;;;;;;;0.00;0.00;;;;;;;27.32;47.01;102818.72;7363653;19;20425;-62
2022/07/09 10:22:37;;;;;;;0.00;0.00;;;;;;;27.31;47.16;102828.59;7367208;19;20017;-63
2022/07/09 10:25:03;;;;;;;0.00;0.00;;;;;;;27.25;46.54;102825.41;7364692;19;20511;-63
2022/07/09 10:27:29;;;;;;;0.10;0.10;;;;;;;27.27;46.13;102820.81;7365143;19;21093;-62
2022/07/09 10:29:58;;;;;;;0.00;0.00;;;;;;;27.31;45.51;102814.31;7366963;19;20018;-63
2022/07/09 10:32:32;;;;;;;0.10;0.10;;;;;;;27.42;45.77;102815.41;7364395;19;20010;-63
2022/07/09 10:34:59;;;;;;;0.10;0.10;;;;;;;27.39;45.55;102812.91;7365801;19;20011;-62
2022/07/09 10:37:44;;;;;;;0.10;0.10;;;;;;;27.48;46.12;102803.44;7366995;19;20370;-62
2022/07/09 10:40:17;;;;;;;0.10;0.10;;;;;;;27.63;46.29;102807.88;7261838;19;2004388;-62
2022/07/09 10:42:44;;;;;;;0.05;0.05;;;;;;;27.70;45.10;102810.16;7365165;19;20018;-62
2022/07/09 10:45:15;;;;;;;;;;;;;;;27.97;47.34;102805.78;7368195;19;20038;-62
2022/07/09 10:47:41;;;;;;;0.00;0.00;;;;;;;28.02;45.45;102802.81;7365864;19;19934;-63
2022/07/09 10:50:07;;;;;;;0.10;0.10;;;;;;;28.24;44.26;102800.50;7367234;19;20427;-63
2022/07/09 10:52:34;;;;;;;0.10;0.10;;;;;;;28.44;44.44;102801.91;7364379;19;20014;-62
2022/07/09 10:54:59;;;;;;;0.03;0.03;;;;;;;28.59;44.68;102817.03;7367408;19;20009;-63
2022/07/09 10:57:24;;;;;;;0.10;0.10;;;;;;;28.68;43.77;102791.34;7359064;19;20010;-63
2022/07/09 10:59:50;;;;;;;0.10;0.10;;;;;;;28.95;42.58;102794.94;7365925;19;20806;-63
2022/07/09 11:02:22;;;;;;;0.08;0.08;;;;;;;29.17;43.95;102815.84;7365389;19;20042;-63
2022/07/09 11:04:49;;;;;;;0.10;0.10;;;;;;;29.14;43.19;102807.97;7365946;19;20474;-62
2022/07/09 11:07:25;;;;;;;0.10;0.10;;;;;;;29.23;44.27;102798.41;7362460;19;20015;-63
2022/07/09 11:09:52;;;;;;;0.10;0.10;;;;;;;29.16;43.69;102797.13;7366708;19;20833;-62
2022/07/09 11:12:21;;;;;;;0.08;0.08;;;;;;;29.27;44.02;102801.78;7363354;19;20034;-62
2022/07/09 11:14:48;;;;;;;0.05;0.05;;;;;;;29.28;43.47;102806.19;7366644;19;20130;-63
2022/07/09 11:17:20;;;;;;;0.10;0.10;;;;;;;29.41;42.94;102799.00;7365813;19;20577;-63
2022/07/09 11:19:46;;;;;;;0.03;0.03;;;;;;;29.51;42.17;102804.59;7364306;19;20025;-63
2022/07/09 11:22:12;;;;;;;0.10;0.10;;;;;;;29.71;42.17;102799.56;7366125;19;20090;-63